sensor_id;sensor_type;location;lat;lon;timestamp;P1;durP1;ratioP1;P2;durP2;ratioP2
5345;SDS011;2695;49.444;11.054;2023-04-08T00:01:47;9.60;;;8.20;;
5345;SDS011;2695;49.444;11.054;2023-04-08T00:04:16;12.23;;;8.60;;
5345;SDS011;2695;49.444;11.054;2023-04-08T00:06:45;10.63;;;8.13;;
5345;SDS011;2695;49.444;11.054;2023-04-08T00:09:13;9.27;;;8.00;;
5345;SDS011;2695;49.444;11.054;2023-04-08T00:11:41;20.27;;;9.37;;
5345;SDS011;2695;49.444;11.054;2023-04-08T00:14:09;11.97;;;8.37;;
5345;SDS011;2695;49.444;11.054;2023-04-08T00:16:37;13.00;;;9.17;;
5345;SDS011;2695;49.444;11.054;2023-04-08T00:19:05;13.70;;;9.00;;
5345;SDS011;2695;49.444;11.054;2023-04-08T00:21:35;12.50;;;9.70;;
5345;SDS011;2695;49.444;11.054;2023-04-08T00:24:03;14.30;;;10.00;;
5345;SDS011;2695;49.444;11.054;2023-04-08T00:26:32;13.30;;;9.20;;
5345;SDS011;2695;49.444;11.054;2023-04-08T00:29:00;11.67;;;8.87;;
5345;SDS011;2695;49.444;11.054;2023-04-08T00:31:28;17.83;;;9.00;;
5345;SDS011;2695;49.444;11.054;2023-04-08T00:33:56;10.40;;;8.60;;
5345;SDS011;2695;49.444;11.054;2023-04-08T00:36:24;14.67;;;8.17;;
5345;SDS011;2695;49.444;11.054;2023-04-08T00:38:54;12.77;;;8.47;;
5345;SDS011;2695;49.444;11.054;2023-04-08T00:41:23;11.67;;;8.90;;
5345;SDS011;2695;49.444;11.054;2023-04-08T00:43:51;12.50;;;8.13;;
5345;SDS011;2695;49.444;11.054;2023-04-08T00:46:19;13.20;;;9.67;;
5345;SDS011;2695;49.444;11.054;2023-04-08T00:48:48;12.07;;;8.80;;
5345;SDS011;2695;49.444;11.054;2023-04-08T00:51:17;12.60;;;8.87;;
5345;SDS011;2695;49.444;11.054;2023-04-08T00:53:45;14.47;;;9.13;;
5345;SDS011;2695;49.444;11.054;2023-04-08T00:56:14;11.77;;;8.20;;
5345;SDS011;2695;49.444;11.054;2023-04-08T00:58:43;15.23;;;9.53;;
5345;SDS011;2695;49.444;11.054;2023-04-08T01:01:11;12.50;;;7.57;;
5345;SDS011;2695;49.444;11.054;2023-04-08T01:03:49;10.63;;;8.50;;
5345;SDS011;2695;49.444;11.054;2023-04-08T01:06:26;13.87;;;7.93;;
5345;SDS011;2695;49.444;11.054;2023-04-08T01:09:07;18.77;;;9.00;;
5345;SDS011;2695;49.444;11.054;2023-04-08T01:11:38;11.87;;;7.83;;
5345;SDS011;2695;49.444;11.054;2023-04-08T01:14:10;12.83;;;8.43;;
5345;SDS011;2695;49.444;11.054;2023-04-08T01:16:42;10.27;;;7.80;;
5345;SDS011;2695;49.444;11.054;2023-04-08T01:19:22;11.20;;;7.70;;
5345;SDS011;2695;49.444;11.054;2023-04-08T01:21:58;12.03;;;8.30;;
5345;SDS011;2695;49.444;11.054;2023-04-08T01:24:32;9.77;;;7.73;;
5345;SDS011;2695;49.444;11.054;2023-04-08T01:27:06;11.50;;;7.53;;
5345;SDS011;2695;49.444;11.054;2023-04-08T01:29:36;11.57;;;8.67;;
5345;SDS011;2695;49.444;11.054;2023-04-08T01:32:05;15.97;;;9.33;;
5345;SDS011;2695;49.444;11.054;2023-04-08T01:34:35;16.47;;;9.77;;
5345;SDS011;2695;49.444;11.054;2023-04-08T01:37:04;10.97;;;8.20;;
5345;SDS011;2695;49.444;11.054;2023-04-08T01:39:34;12.07;;;8.50;;
5345;SDS011;2695;49.444;11.054;2023-04-08T01:42:02;11.40;;;8.60;;
5345;SDS011;2695;49.444;11.054;2023-04-08T01:44:32;10.50;;;7.60;;
5345;SDS011;2695;49.444;11.054;2023-04-08T01:47:02;10.20;;;7.60;;
5345;SDS011;2695;49.444;11.054;2023-04-08T01:49:30;12.43;;;8.13;;
5345;SDS011;2695;49.444;11.054;2023-04-08T01:51:59;13.33;;;8.33;;
5345;SDS011;2695;49.444;11.054;2023-04-08T01:55:18;12.13;;;8.10;;
5345;SDS011;2695;49.444;11.054;2023-04-08T01:58:45;13.63;;;9.00;;
5345;SDS011;2695;49.444;11.054;2023-04-08T02:01:32;14.17;;;8.40;;
5345;SDS011;2695;49.444;11.054;2023-04-08T02:07:33;13.20;;;8.23;;
5345;SDS011;2695;49.444;11.054;2023-04-08T02:11:17;13.23;;;8.87;;
5345;SDS011;2695;49.444;11.054;2023-04-08T02:18:17;14.00;;;7.53;;
5345;SDS011;2695;49.444;11.054;2023-04-08T02:21:15;13.63;;;8.77;;
5345;SDS011;2695;49.444;11.054;2023-04-08T02:24:06;12.27;;;8.60;;
5345;SDS011;2695;49.444;11.054;2023-04-08T02:26:47;12.70;;;7.97;;
5345;SDS011;2695;49.444;11.054;2023-04-08T02:29:36;11.60;;;8.20;;
5345;SDS011;2695;49.444;11.054;2023-04-08T02:32:35;10.70;;;8.53;;
5345;SDS011;2695;49.444;11.054;2023-04-08T02:35:25;13.93;;;8.20;;
5345;SDS011;2695;49.444;11.054;2023-04-08T02:38:14;21.97;;;10.20;;
5345;SDS011;2695;49.444;11.054;2023-04-08T02:44:07;13.03;;;9.47;;
5345;SDS011;2695;49.444;11.054;2023-04-08T02:46:54;14.53;;;9.93;;
5345;SDS011;2695;49.444;11.054;2023-04-08T02:49:43;17.57;;;9.27;;
5345;SDS011;2695;49.444;11.054;2023-04-08T02:52:17;13.03;;;8.87;;
5345;SDS011;2695;49.444;11.054;2023-04-08T02:55:24;13.57;;;8.57;;
5345;SDS011;2695;49.444;11.054;2023-04-08T02:57:52;11.27;;;8.67;;
5345;SDS011;2695;49.444;11.054;2023-04-08T03:00:25;20.10;;;8.80;;
5345;SDS011;2695;49.444;11.054;2023-04-08T03:03:04;12.33;;;8.80;;
5345;SDS011;2695;49.444;11.054;2023-04-08T03:06:06;13.37;;;8.57;;
5345;SDS011;2695;49.444;11.054;2023-04-08T03:08:46;11.93;;;8.80;;
5345;SDS011;2695;49.444;11.054;2023-04-08T03:11:24;16.00;;;9.73;;
5345;SDS011;2695;49.444;11.054;2023-04-08T03:14:15;11.03;;;9.13;;
5345;SDS011;2695;49.444;11.054;2023-04-08T03:17:03;13.13;;;8.87;;
5345;SDS011;2695;49.444;11.054;2023-04-08T03:19:37;13.33;;;8.87;;
5345;SDS011;2695;49.444;11.054;2023-04-08T03:22:09;14.20;;;9.10;;
5345;SDS011;2695;49.444;11.054;2023-04-08T03:24:56;11.87;;;9.27;;
5345;SDS011;2695;49.444;11.054;2023-04-08T03:27:37;11.03;;;8.67;;
5345;SDS011;2695;49.444;11.054;2023-04-08T03:30:15;12.97;;;9.13;;
5345;SDS011;2695;49.444;11.054;2023-04-08T03:32:46;14.50;;;9.23;;
5345;SDS011;2695;49.444;11.054;2023-04-08T03:35:22;11.60;;;8.00;;
5345;SDS011;2695;49.444;11.054;2023-04-08T03:37:57;14.60;;;9.87;;
5345;SDS011;2695;49.444;11.054;2023-04-08T03:40:32;11.07;;;8.53;;
5345;SDS011;2695;49.444;11.054;2023-04-08T03:43:03;12.70;;;9.20;;
5345;SDS011;2695;49.444;11.054;2023-04-08T03:45:41;11.87;;;8.47;;
5345;SDS011;2695;49.444;11.054;2023-04-08T03:48:26;11.20;;;8.40;;
5345;SDS011;2695;49.444;11.054;2023-04-08T03:51:11;14.27;;;8.70;;
5345;SDS011;2695;49.444;11.054;2023-04-08T03:57:07;12.20;;;8.97;;
5345;SDS011;2695;49.444;11.054;2023-04-08T04:00:07;12.70;;;8.53;;
5345;SDS011;2695;49.444;11.054;2023-04-08T04:06:03;17.17;;;10.20;;
5345;SDS011;2695;49.444;11.054;2023-04-08T04:08:51;11.90;;;8.23;;
5345;SDS011;2695;49.444;11.054;2023-04-08T04:11:27;13.40;;;8.97;;
5345;SDS011;2695;49.444;11.054;2023-04-08T04:17:07;13.13;;;8.83;;
5345;SDS011;2695;49.444;11.054;2023-04-08T04:19:40;14.20;;;8.97;;
5345;SDS011;2695;49.444;11.054;2023-04-08T04:22:11;11.60;;;8.57;;
5345;SDS011;2695;49.444;11.054;2023-04-08T04:24:57;13.73;;;9.83;;
5345;SDS011;2695;49.444;11.054;2023-04-08T04:27:36;12.33;;;8.30;;
5345;SDS011;2695;49.444;11.054;2023-04-08T04:30:23;13.73;;;8.67;;
5345;SDS011;2695;49.444;11.054;2023-04-08T04:33:17;12.67;;;8.70;;
5345;SDS011;2695;49.444;11.054;2023-04-08T04:35:59;14.40;;;9.20;;
5345;SDS011;2695;49.444;11.054;2023-04-08T04:39:18;12.40;;;8.53;;
5345;SDS011;2695;49.444;11.054;2023-04-08T04:42:08;14.13;;;9.30;;
5345;SDS011;2695;49.444;11.054;2023-04-08T04:44:40;10.77;;;8.33;;
5345;SDS011;2695;49.444;11.054;2023-04-08T04:47:15;11.93;;;7.53;;
5345;SDS011;2695;49.444;11.054;2023-04-08T04:50:06;12.10;;;9.17;;
5345;SDS011;2695;49.444;11.054;2023-04-08T04:52:55;13.87;;;9.03;;
5345;SDS011;2695;49.444;11.054;2023-04-08T04:55:35;15.27;;;8.60;;
5345;SDS011;2695;49.444;11.054;2023-04-08T04:58:24;13.10;;;8.80;;
5345;SDS011;2695;49.444;11.054;2023-04-08T05:00:53;13.10;;;8.30;;
5345;SDS011;2695;49.444;11.054;2023-04-08T05:03:48;14.50;;;9.17;;
5345;SDS011;2695;49.444;11.054;2023-04-08T05:06:55;11.57;;;8.93;;
5345;SDS011;2695;49.444;11.054;2023-04-08T05:12:39;14.50;;;8.70;;
5345;SDS011;2695;49.444;11.054;2023-04-08T05:15:23;15.87;;;9.23;;
5345;SDS011;2695;49.444;11.054;2023-04-08T05:18:03;11.87;;;8.63;;
5345;SDS011;2695;49.444;11.054;2023-04-08T05:23:37;17.10;;;9.93;;
5345;SDS011;2695;49.444;11.054;2023-04-08T05:26:40;11.43;;;8.93;;
5345;SDS011;2695;49.444;11.054;2023-04-08T05:29:45;10.03;;;8.17;;
5345;SDS011;2695;49.444;11.054;2023-04-08T05:32:40;14.00;;;8.80;;
5345;SDS011;2695;49.444;11.054;2023-04-08T05:35:34;10.77;;;8.10;;
5345;SDS011;2695;49.444;11.054;2023-04-08T05:38:10;15.20;;;10.03;;
5345;SDS011;2695;49.444;11.054;2023-04-08T05:40:57;16.33;;;8.63;;
5345;SDS011;2695;49.444;11.054;2023-04-08T05:43:47;12.33;;;7.47;;
5345;SDS011;2695;49.444;11.054;2023-04-08T05:49:37;13.00;;;7.60;;
5345;SDS011;2695;49.444;11.054;2023-04-08T05:52:21;10.50;;;7.73;;
5345;SDS011;2695;49.444;11.054;2023-04-08T05:54:55;15.67;;;8.10;;
5345;SDS011;2695;49.444;11.054;2023-04-08T05:57:38;11.10;;;6.70;;
5345;SDS011;2695;49.444;11.054;2023-04-08T06:07:21;10.57;;;7.40;;
5345;SDS011;2695;49.444;11.054;2023-04-08T06:10:08;9.70;;;6.27;;
5345;SDS011;2695;49.444;11.054;2023-04-08T06:12:55;9.63;;;6.50;;
5345;SDS011;2695;49.444;11.054;2023-04-08T06:15:45;7.83;;;6.03;;
5345;SDS011;2695;49.444;11.054;2023-04-08T06:18:22;7.67;;;5.37;;
5345;SDS011;2695;49.444;11.054;2023-04-08T06:21:19;9.30;;;6.13;;
5345;SDS011;2695;49.444;11.054;2023-04-08T06:24:03;10.70;;;5.70;;
5345;SDS011;2695;49.444;11.054;2023-04-08T06:26:50;6.20;;;5.13;;
5345;SDS011;2695;49.444;11.054;2023-04-08T06:29:24;7.80;;;5.87;;
5345;SDS011;2695;49.444;11.054;2023-04-08T06:32:24;14.90;;;5.87;;
5345;SDS011;2695;49.444;11.054;2023-04-08T06:38:16;10.33;;;4.27;;
5345;SDS011;2695;49.444;11.054;2023-04-08T06:41:15;8.30;;;5.70;;
5345;SDS011;2695;49.444;11.054;2023-04-08T06:43:45;5.90;;;4.53;;
5345;SDS011;2695;49.444;11.054;2023-04-08T06:46:12;8.33;;;4.80;;
5345;SDS011;2695;49.444;11.054;2023-04-08T06:48:41;6.10;;;5.10;;
5345;SDS011;2695;49.444;11.054;2023-04-08T06:51:09;7.47;;;5.13;;
5345;SDS011;2695;49.444;11.054;2023-04-08T06:53:37;8.50;;;5.20;;
5345;SDS011;2695;49.444;11.054;2023-04-08T06:56:05;9.10;;;4.67;;
5345;SDS011;2695;49.444;11.054;2023-04-08T06:58:33;5.87;;;4.83;;
5345;SDS011;2695;49.444;11.054;2023-04-08T07:01:02;5.90;;;4.60;;
5345;SDS011;2695;49.444;11.054;2023-04-08T07:03:30;9.30;;;5.00;;
5345;SDS011;2695;49.444;11.054;2023-04-08T07:05:58;5.63;;;4.67;;
5345;SDS011;2695;49.444;11.054;2023-04-08T07:08:26;20.77;;;10.10;;
5345;SDS011;2695;49.444;11.054;2023-04-08T07:10:54;6.67;;;4.60;;
5345;SDS011;2695;49.444;11.054;2023-04-08T07:13:22;7.60;;;4.50;;
5345;SDS011;2695;49.444;11.054;2023-04-08T07:15:50;7.90;;;4.37;;
5345;SDS011;2695;49.444;11.054;2023-04-08T07:18:20;6.53;;;4.80;;
5345;SDS011;2695;49.444;11.054;2023-04-08T07:20:49;7.03;;;4.13;;
5345;SDS011;2695;49.444;11.054;2023-04-08T07:23:19;6.87;;;4.70;;
5345;SDS011;2695;49.444;11.054;2023-04-08T07:25:47;5.43;;;3.90;;
5345;SDS011;2695;49.444;11.054;2023-04-08T07:28:15;6.40;;;4.40;;
5345;SDS011;2695;49.444;11.054;2023-04-08T07:30:43;5.43;;;3.90;;
5345;SDS011;2695;49.444;11.054;2023-04-08T07:33:11;7.90;;;4.13;;
5345;SDS011;2695;49.444;11.054;2023-04-08T07:35:54;5.63;;;4.03;;
5345;SDS011;2695;49.444;11.054;2023-04-08T07:38:24;5.20;;;4.30;;
5345;SDS011;2695;49.444;11.054;2023-04-08T07:41:11;7.00;;;4.13;;
5345;SDS011;2695;49.444;11.054;2023-04-08T07:44:06;6.27;;;4.07;;
5345;SDS011;2695;49.444;11.054;2023-04-08T07:46:45;6.73;;;4.60;;
5345;SDS011;2695;49.444;11.054;2023-04-08T07:49:50;13.30;;;5.20;;
5345;SDS011;2695;49.444;11.054;2023-04-08T07:52:27;14.63;;;10.03;;
5345;SDS011;2695;49.444;11.054;2023-04-08T07:54:56;8.13;;;5.00;;
5345;SDS011;2695;49.444;11.054;2023-04-08T07:57:24;6.63;;;4.60;;
5345;SDS011;2695;49.444;11.054;2023-04-08T07:59:52;6.93;;;5.30;;
5345;SDS011;2695;49.444;11.054;2023-04-08T08:02:20;10.63;;;6.27;;
5345;SDS011;2695;49.444;11.054;2023-04-08T08:04:50;8.97;;;6.03;;
5345;SDS011;2695;49.444;11.054;2023-04-08T08:07:18;7.93;;;6.20;;
5345;SDS011;2695;49.444;11.054;2023-04-08T08:09:47;10.50;;;6.10;;
5345;SDS011;2695;49.444;11.054;2023-04-08T08:12:16;8.17;;;6.37;;
5345;SDS011;2695;49.444;11.054;2023-04-08T08:14:44;11.33;;;6.13;;
5345;SDS011;2695;49.444;11.054;2023-04-08T08:17:11;7.80;;;6.70;;
5345;SDS011;2695;49.444;11.054;2023-04-08T08:19:40;9.80;;;6.60;;
5345;SDS011;2695;49.444;11.054;2023-04-08T08:22:10;8.57;;;6.80;;
5345;SDS011;2695;49.444;11.054;2023-04-08T08:24:38;9.00;;;6.70;;
5345;SDS011;2695;49.444;11.054;2023-04-08T08:27:07;10.00;;;6.77;;
5345;SDS011;2695;49.444;11.054;2023-04-08T08:29:36;10.33;;;6.03;;
5345;SDS011;2695;49.444;11.054;2023-04-08T08:32:04;10.10;;;6.23;;
5345;SDS011;2695;49.444;11.054;2023-04-08T08:34:32;9.07;;;6.43;;
5345;SDS011;2695;49.444;11.054;2023-04-08T08:37:01;7.83;;;6.03;;
5345;SDS011;2695;49.444;11.054;2023-04-08T08:39:29;9.47;;;6.50;;
5345;SDS011;2695;49.444;11.054;2023-04-08T08:41:57;7.17;;;6.23;;
5345;SDS011;2695;49.444;11.054;2023-04-08T08:44:26;7.33;;;5.93;;
5345;SDS011;2695;49.444;11.054;2023-04-08T08:46:56;9.27;;;6.33;;
5345;SDS011;2695;49.444;11.054;2023-04-08T08:49:24;11.83;;;6.40;;
5345;SDS011;2695;49.444;11.054;2023-04-08T08:51:52;7.13;;;5.13;;
5345;SDS011;2695;49.444;11.054;2023-04-08T08:54:24;8.60;;;5.63;;
5345;SDS011;2695;49.444;11.054;2023-04-08T08:58:04;9.87;;;5.70;;
5345;SDS011;2695;49.444;11.054;2023-04-08T09:04:16;12.07;;;6.13;;
5345;SDS011;2695;49.444;11.054;2023-04-08T09:06:51;7.53;;;6.13;;
5345;SDS011;2695;49.444;11.054;2023-04-08T09:09:46;8.60;;;5.40;;
5345;SDS011;2695;49.444;11.054;2023-04-08T09:12:15;8.37;;;6.00;;
5345;SDS011;2695;49.444;11.054;2023-04-08T09:14:43;5.67;;;5.03;;
5345;SDS011;2695;49.444;11.054;2023-04-08T09:17:13;7.70;;;4.80;;
5345;SDS011;2695;49.444;11.054;2023-04-08T09:22:36;8.17;;;5.50;;
5345;SDS011;2695;49.444;11.054;2023-04-08T09:25:23;6.20;;;5.43;;
5345;SDS011;2695;49.444;11.054;2023-04-08T09:27:51;9.47;;;5.73;;
5345;SDS011;2695;49.444;11.054;2023-04-08T09:30:21;6.57;;;5.80;;
5345;SDS011;2695;49.444;11.054;2023-04-08T09:32:52;8.00;;;6.07;;
5345;SDS011;2695;49.444;11.054;2023-04-08T09:35:21;10.20;;;6.10;;
5345;SDS011;2695;49.444;11.054;2023-04-08T09:37:50;7.03;;;5.90;;
5345;SDS011;2695;49.444;11.054;2023-04-08T09:40:19;7.00;;;5.40;;
5345;SDS011;2695;49.444;11.054;2023-04-08T09:42:48;11.80;;;8.17;;
5345;SDS011;2695;49.444;11.054;2023-04-08T09:45:21;8.53;;;6.03;;
5345;SDS011;2695;49.444;11.054;2023-04-08T09:47:55;7.80;;;5.80;;
5345;SDS011;2695;49.444;11.054;2023-04-08T09:50:26;9.07;;;6.30;;
5345;SDS011;2695;49.444;11.054;2023-04-08T09:52:59;7.50;;;6.60;;
5345;SDS011;2695;49.444;11.054;2023-04-08T09:55:29;7.63;;;5.70;;
5345;SDS011;2695;49.444;11.054;2023-04-08T09:58:02;7.80;;;6.50;;
5345;SDS011;2695;49.444;11.054;2023-04-08T10:00:36;9.77;;;6.27;;
5345;SDS011;2695;49.444;11.054;2023-04-08T10:03:09;8.60;;;6.27;;
5345;SDS011;2695;49.444;11.054;2023-04-08T10:05:39;6.17;;;5.57;;
5345;SDS011;2695;49.444;11.054;2023-04-08T10:08:10;11.13;;;6.07;;
5345;SDS011;2695;49.444;11.054;2023-04-08T10:10:39;11.90;;;7.70;;
5345;SDS011;2695;49.444;11.054;2023-04-08T10:13:11;6.57;;;5.67;;
5345;SDS011;2695;49.444;11.054;2023-04-08T10:15:39;8.27;;;5.90;;
5345;SDS011;2695;49.444;11.054;2023-04-08T10:24:01;7.20;;;5.60;;
5345;SDS011;2695;49.444;11.054;2023-04-08T10:26:33;7.47;;;6.53;;
5345;SDS011;2695;49.444;11.054;2023-04-08T10:29:29;7.40;;;5.87;;
5345;SDS011;2695;49.444;11.054;2023-04-08T10:32:00;8.53;;;6.33;;
5345;SDS011;2695;49.444;11.054;2023-04-08T10:34:30;8.03;;;6.17;;
5345;SDS011;2695;49.444;11.054;2023-04-08T10:37:01;6.90;;;6.20;;
5345;SDS011;2695;49.444;11.054;2023-04-08T10:39:29;5.77;;;4.93;;
5345;SDS011;2695;49.444;11.054;2023-04-08T10:42:00;7.77;;;6.00;;
5345;SDS011;2695;49.444;11.054;2023-04-08T10:44:29;9.33;;;6.20;;
5345;SDS011;2695;49.444;11.054;2023-04-08T10:46:57;6.20;;;5.60;;
5345;SDS011;2695;49.444;11.054;2023-04-08T10:49:32;6.70;;;5.93;;
5345;SDS011;2695;49.444;11.054;2023-04-08T10:52:05;7.60;;;5.90;;
5345;SDS011;2695;49.444;11.054;2023-04-08T10:54:34;7.60;;;5.60;;
5345;SDS011;2695;49.444;11.054;2023-04-08T10:57:03;6.73;;;5.60;;
5345;SDS011;2695;49.444;11.054;2023-04-08T10:59:32;10.30;;;6.53;;
5345;SDS011;2695;49.444;11.054;2023-04-08T11:02:02;5.97;;;4.97;;
5345;SDS011;2695;49.444;11.054;2023-04-08T11:04:31;8.33;;;5.50;;
5345;SDS011;2695;49.444;11.054;2023-04-08T11:07:00;6.97;;;4.80;;
5345;SDS011;2695;49.444;11.054;2023-04-08T11:09:33;9.90;;;5.83;;
5345;SDS011;2695;49.444;11.054;2023-04-08T11:12:01;7.70;;;5.67;;
5345;SDS011;2695;49.444;11.054;2023-04-08T11:14:30;6.30;;;4.97;;
5345;SDS011;2695;49.444;11.054;2023-04-08T11:16:58;10.47;;;6.00;;
5345;SDS011;2695;49.444;11.054;2023-04-08T11:19:27;5.90;;;5.10;;
5345;SDS011;2695;49.444;11.054;2023-04-08T11:21:57;7.00;;;4.97;;
5345;SDS011;2695;49.444;11.054;2023-04-08T11:24:25;6.17;;;5.30;;
5345;SDS011;2695;49.444;11.054;2023-04-08T11:26:53;6.50;;;5.70;;
5345;SDS011;2695;49.444;11.054;2023-04-08T11:29:22;4.97;;;4.47;;
5345;SDS011;2695;49.444;11.054;2023-04-08T11:31:50;7.50;;;5.90;;
5345;SDS011;2695;49.444;11.054;2023-04-08T11:34:21;5.50;;;4.53;;
5345;SDS011;2695;49.444;11.054;2023-04-08T11:36:51;5.63;;;5.00;;
5345;SDS011;2695;49.444;11.054;2023-04-08T11:39:22;7.53;;;5.33;;
5345;SDS011;2695;49.444;11.054;2023-04-08T11:41:51;7.90;;;5.40;;
5345;SDS011;2695;49.444;11.054;2023-04-08T11:44:28;5.33;;;4.30;;
5345;SDS011;2695;49.444;11.054;2023-04-08T11:46:58;6.20;;;4.53;;
5345;SDS011;2695;49.444;11.054;2023-04-08T11:49:27;6.70;;;5.53;;
5345;SDS011;2695;49.444;11.054;2023-04-08T11:52:10;6.73;;;5.60;;
5345;SDS011;2695;49.444;11.054;2023-04-08T11:54:41;7.63;;;5.10;;
5345;SDS011;2695;49.444;11.054;2023-04-08T11:57:09;5.73;;;4.87;;
5345;SDS011;2695;49.444;11.054;2023-04-08T11:59:37;5.33;;;4.80;;
5345;SDS011;2695;49.444;11.054;2023-04-08T12:02:05;7.30;;;5.30;;
5345;SDS011;2695;49.444;11.054;2023-04-08T12:04:33;5.80;;;5.03;;
5345;SDS011;2695;49.444;11.054;2023-04-08T12:07:01;6.40;;;4.90;;
5345;SDS011;2695;49.444;11.054;2023-04-08T12:09:29;5.53;;;4.57;;
5345;SDS011;2695;49.444;11.054;2023-04-08T12:11:59;7.73;;;5.40;;
5345;SDS011;2695;49.444;11.054;2023-04-08T12:14:27;7.13;;;5.00;;
5345;SDS011;2695;49.444;11.054;2023-04-08T12:16:55;8.07;;;5.23;;
5345;SDS011;2695;49.444;11.054;2023-04-08T12:19:23;5.40;;;4.87;;
5345;SDS011;2695;49.444;11.054;2023-04-08T12:21:52;8.60;;;5.53;;
5345;SDS011;2695;49.444;11.054;2023-04-08T12:24:21;5.83;;;4.90;;
5345;SDS011;2695;49.444;11.054;2023-04-08T12:26:49;6.77;;;5.00;;
5345;SDS011;2695;49.444;11.054;2023-04-08T12:29:18;6.90;;;4.83;;
5345;SDS011;2695;49.444;11.054;2023-04-08T12:31:46;7.67;;;4.53;;
5345;SDS011;2695;49.444;11.054;2023-04-08T12:34:14;7.03;;;4.47;;
5345;SDS011;2695;49.444;11.054;2023-04-08T12:36:43;6.43;;;4.10;;
5345;SDS011;2695;49.444;11.054;2023-04-08T12:39:11;6.03;;;4.70;;
5345;SDS011;2695;49.444;11.054;2023-04-08T12:41:39;6.27;;;4.73;;
5345;SDS011;2695;49.444;11.054;2023-04-08T12:44:07;6.60;;;4.97;;
5345;SDS011;2695;49.444;11.054;2023-04-08T12:46:37;7.43;;;5.10;;
5345;SDS011;2695;49.444;11.054;2023-04-08T12:49:05;5.80;;;4.27;;
5345;SDS011;2695;49.444;11.054;2023-04-08T12:51:34;7.00;;;4.93;;
5345;SDS011;2695;49.444;11.054;2023-04-08T12:54:02;6.23;;;4.20;;
5345;SDS011;2695;49.444;11.054;2023-04-08T12:56:31;6.97;;;4.73;;
5345;SDS011;2695;49.444;11.054;2023-04-08T12:58:59;6.23;;;4.70;;
5345;SDS011;2695;49.444;11.054;2023-04-08T13:01:27;6.27;;;5.27;;
5345;SDS011;2695;49.444;11.054;2023-04-08T13:03:57;5.50;;;4.17;;
5345;SDS011;2695;49.444;11.054;2023-04-08T13:06:26;4.17;;;3.73;;
5345;SDS011;2695;49.444;11.054;2023-04-08T13:08:54;10.27;;;4.30;;
5345;SDS011;2695;49.444;11.054;2023-04-08T13:11:22;5.17;;;3.80;;
5345;SDS011;2695;49.444;11.054;2023-04-08T13:13:50;8.63;;;5.37;;
5345;SDS011;2695;49.444;11.054;2023-04-08T13:16:18;5.50;;;3.93;;
5345;SDS011;2695;49.444;11.054;2023-04-08T13:18:47;5.40;;;4.60;;
5345;SDS011;2695;49.444;11.054;2023-04-08T13:21:16;4.90;;;4.33;;
5345;SDS011;2695;49.444;11.054;2023-04-08T13:23:44;6.30;;;4.50;;
5345;SDS011;2695;49.444;11.054;2023-04-08T13:26:12;6.13;;;3.50;;
5345;SDS011;2695;49.444;11.054;2023-04-08T13:28:40;4.07;;;3.37;;
5345;SDS011;2695;49.444;11.054;2023-04-08T13:31:22;4.73;;;4.03;;
5345;SDS011;2695;49.444;11.054;2023-04-08T13:33:50;4.17;;;3.10;;
5345;SDS011;2695;49.444;11.054;2023-04-08T13:36:23;4.23;;;3.70;;
5345;SDS011;2695;49.444;11.054;2023-04-08T13:38:52;4.20;;;3.70;;
5345;SDS011;2695;49.444;11.054;2023-04-08T13:41:19;5.40;;;3.30;;
5345;SDS011;2695;49.444;11.054;2023-04-08T13:43:47;4.47;;;3.37;;
5345;SDS011;2695;49.444;11.054;2023-04-08T13:46:16;4.43;;;3.37;;
5345;SDS011;2695;49.444;11.054;2023-04-08T13:48:44;4.10;;;3.70;;
5345;SDS011;2695;49.444;11.054;2023-04-08T13:51:12;5.60;;;4.13;;
5345;SDS011;2695;49.444;11.054;2023-04-08T13:53:41;4.57;;;3.50;;
5345;SDS011;2695;49.444;11.054;2023-04-08T13:56:09;5.00;;;3.97;;
5345;SDS011;2695;49.444;11.054;2023-04-08T13:58:37;4.33;;;3.83;;
5345;SDS011;2695;49.444;11.054;2023-04-08T14:01:05;4.97;;;3.73;;
5345;SDS011;2695;49.444;11.054;2023-04-08T14:03:33;3.30;;;2.90;;
5345;SDS011;2695;49.444;11.054;2023-04-08T14:06:01;4.47;;;3.57;;
5345;SDS011;2695;49.444;11.054;2023-04-08T14:08:29;4.23;;;3.63;;
5345;SDS011;2695;49.444;11.054;2023-04-08T14:10:58;4.13;;;2.93;;
5345;SDS011;2695;49.444;11.054;2023-04-08T14:13:26;7.33;;;3.80;;
5345;SDS011;2695;49.444;11.054;2023-04-08T14:15:54;4.80;;;3.50;;
5345;SDS011;2695;49.444;11.054;2023-04-08T14:18:23;4.23;;;3.70;;
5345;SDS011;2695;49.444;11.054;2023-04-08T14:20:51;7.00;;;3.30;;
5345;SDS011;2695;49.444;11.054;2023-04-08T14:23:19;3.80;;;3.23;;
5345;SDS011;2695;49.444;11.054;2023-04-08T14:25:47;5.00;;;3.77;;
5345;SDS011;2695;49.444;11.054;2023-04-08T14:28:17;4.63;;;3.17;;
5345;SDS011;2695;49.444;11.054;2023-04-08T14:30:45;4.10;;;3.33;;
5345;SDS011;2695;49.444;11.054;2023-04-08T14:33:13;3.80;;;3.10;;
5345;SDS011;2695;49.444;11.054;2023-04-08T14:35:41;4.30;;;3.00;;
5345;SDS011;2695;49.444;11.054;2023-04-08T14:38:09;3.97;;;3.57;;
5345;SDS011;2695;49.444;11.054;2023-04-08T14:40:37;4.57;;;3.70;;
5345;SDS011;2695;49.444;11.054;2023-04-08T14:43:05;4.13;;;3.47;;
5345;SDS011;2695;49.444;11.054;2023-04-08T14:45:35;3.70;;;3.33;;
5345;SDS011;2695;49.444;11.054;2023-04-08T14:48:03;5.83;;;3.27;;
5345;SDS011;2695;49.444;11.054;2023-04-08T14:50:30;3.63;;;3.10;;
5345;SDS011;2695;49.444;11.054;2023-04-08T14:52:58;3.60;;;3.30;;
5345;SDS011;2695;49.444;11.054;2023-04-08T14:55:27;3.63;;;3.13;;
5345;SDS011;2695;49.444;11.054;2023-04-08T14:57:55;3.60;;;3.10;;
5345;SDS011;2695;49.444;11.054;2023-04-08T15:00:26;3.80;;;3.50;;
5345;SDS011;2695;49.444;11.054;2023-04-08T15:02:55;4.00;;;3.13;;
5345;SDS011;2695;49.444;11.054;2023-04-08T15:05:24;3.57;;;2.53;;
5345;SDS011;2695;49.444;11.054;2023-04-08T15:07:52;3.60;;;3.30;;
5345;SDS011;2695;49.444;11.054;2023-04-08T15:10:20;3.47;;;2.97;;
5345;SDS011;2695;49.444;11.054;2023-04-08T15:12:48;3.50;;;2.70;;
5345;SDS011;2695;49.444;11.054;2023-04-08T15:15:16;4.23;;;3.17;;
5345;SDS011;2695;49.444;11.054;2023-04-08T15:17:44;3.53;;;2.47;;
5345;SDS011;2695;49.444;11.054;2023-04-08T15:20:13;4.80;;;3.37;;
5345;SDS011;2695;49.444;11.054;2023-04-08T15:22:42;2.73;;;2.53;;
5345;SDS011;2695;49.444;11.054;2023-04-08T15:25:11;3.20;;;2.90;;
5345;SDS011;2695;49.444;11.054;2023-04-08T15:27:39;4.57;;;3.10;;
5345;SDS011;2695;49.444;11.054;2023-04-08T15:30:08;3.83;;;2.90;;
5345;SDS011;2695;49.444;11.054;2023-04-08T15:32:37;6.03;;;3.50;;
5345;SDS011;2695;49.444;11.054;2023-04-08T15:35:07;3.00;;;2.57;;
5345;SDS011;2695;49.444;11.054;2023-04-08T15:37:37;3.50;;;2.37;;
5345;SDS011;2695;49.444;11.054;2023-04-08T15:40:06;4.43;;;2.70;;
5345;SDS011;2695;49.444;11.054;2023-04-08T15:42:34;3.37;;;2.47;;
5345;SDS011;2695;49.444;11.054;2023-04-08T15:45:03;3.73;;;3.00;;
5345;SDS011;2695;49.444;11.054;2023-04-08T15:47:31;3.97;;;3.17;;
5345;SDS011;2695;49.444;11.054;2023-04-08T15:50:00;3.90;;;2.80;;
5345;SDS011;2695;49.444;11.054;2023-04-08T15:52:28;4.83;;;3.33;;
5345;SDS011;2695;49.444;11.054;2023-04-08T15:54:57;4.50;;;2.60;;
5345;SDS011;2695;49.444;11.054;2023-04-08T15:57:27;2.97;;;2.57;;
5345;SDS011;2695;49.444;11.054;2023-04-08T15:59:57;4.23;;;2.73;;
5345;SDS011;2695;49.444;11.054;2023-04-08T16:02:25;7.90;;;3.43;;
5345;SDS011;2695;49.444;11.054;2023-04-08T16:04:53;3.53;;;2.57;;
5345;SDS011;2695;49.444;11.054;2023-04-08T16:07:21;5.93;;;3.30;;
5345;SDS011;2695;49.444;11.054;2023-04-08T16:09:49;3.70;;;2.87;;
5345;SDS011;2695;49.444;11.054;2023-04-08T16:12:18;3.63;;;3.17;;
5345;SDS011;2695;49.444;11.054;2023-04-08T16:14:47;3.60;;;2.93;;
5345;SDS011;2695;49.444;11.054;2023-04-08T16:17:15;6.60;;;3.97;;
5345;SDS011;2695;49.444;11.054;2023-04-08T16:19:43;4.70;;;3.63;;
5345;SDS011;2695;49.444;11.054;2023-04-08T16:22:11;4.03;;;3.33;;
5345;SDS011;2695;49.444;11.054;2023-04-08T16:24:39;5.50;;;3.40;;
5345;SDS011;2695;49.444;11.054;2023-04-08T16:27:07;7.63;;;2.97;;
5345;SDS011;2695;49.444;11.054;2023-04-08T16:29:37;6.20;;;3.57;;